sensor_id;sensor_type;location;lat;lon;timestamp;P1;durP1;ratioP1;P2;durP2;ratioP2
7883;SDS011;3987;51.458;7.238;2023-03-01T00:01:50;14.97;;;13.50;;
7883;SDS011;3987;51.458;7.238;2023-03-01T00:16:51;13.77;;;12.37;;
7883;SDS011;3987;51.458;7.238;2023-03-01T00:31:51;13.50;;;12.17;;
7883;SDS011;3987;51.458;7.238;2023-03-01T00:46:51;14.80;;;12.97;;
7883;SDS011;3987;51.458;7.238;2023-03-01T01:01:52;12.30;;;11.17;;
7883;SDS011;3987;51.458;7.238;2023-03-01T01:16:52;13.53;;;12.40;;
7883;SDS011;3987;51.458;7.238;2023-03-01T01:31:53;13.50;;;12.23;;
7883;SDS011;3987;51.458;7.238;2023-03-01T02:01:54;14.73;;;12.93;;
7883;SDS011;3987;51.458;7.238;2023-03-01T02:16:54;13.20;;;12.00;;
7883;SDS011;3987;51.458;7.238;2023-03-01T02:31:55;12.03;;;11.00;;
7883;SDS011;3987;51.458;7.238;2023-03-01T02:46:56;14.63;;;13.10;;
7883;SDS011;3987;51.458;7.238;2023-03-01T03:02:01;13.40;;;12.20;;
7883;SDS011;3987;51.458;7.238;2023-03-01T03:17:02;13.17;;;11.77;;
7883;SDS011;3987;51.458;7.238;2023-03-01T03:32:06;13.77;;;12.57;;
7883;SDS011;3987;51.458;7.238;2023-03-01T03:47:07;14.07;;;12.70;;
7883;SDS011;3987;51.458;7.238;2023-03-01T04:02:07;14.60;;;13.10;;
7883;SDS011;3987;51.458;7.238;2023-03-01T04:17:08;20.20;;;13.83;;
7883;SDS011;3987;51.458;7.238;2023-03-01T04:32:09;14.40;;;12.90;;
7883;SDS011;3987;51.458;7.238;2023-03-01T04:47:09;15.23;;;13.30;;
7883;SDS011;3987;51.458;7.238;2023-03-01T05:02:10;14.07;;;12.83;;
7883;SDS011;3987;51.458;7.238;2023-03-01T05:17:10;15.40;;;13.87;;
7883;SDS011;3987;51.458;7.238;2023-03-01T05:32:10;18.73;;;14.30;;
7883;SDS011;3987;51.458;7.238;2023-03-01T05:47:15;20.63;;;15.23;;
7883;SDS011;3987;51.458;7.238;2023-03-01T06:02:15;19.57;;;15.97;;
7883;SDS011;3987;51.458;7.238;2023-03-01T06:17:16;15.37;;;13.70;;
7883;SDS011;3987;51.458;7.238;2023-03-01T06:32:16;18.47;;;13.67;;
7883;SDS011;3987;51.458;7.238;2023-03-01T06:47:17;15.97;;;14.07;;
7883;SDS011;3987;51.458;7.238;2023-03-01T07:02:17;15.50;;;13.93;;
7883;SDS011;3987;51.458;7.238;2023-03-01T07:17:18;21.13;;;16.43;;
7883;SDS011;3987;51.458;7.238;2023-03-01T07:32:18;17.38;;;15.40;;
7883;SDS011;3987;51.458;7.238;2023-03-01T07:47:19;18.07;;;15.97;;
7883;SDS011;3987;51.458;7.238;2023-03-01T08:02:19;17.70;;;15.03;;
7883;SDS011;3987;51.458;7.238;2023-03-01T08:17:20;14.30;;;12.90;;
7883;SDS011;3987;51.458;7.238;2023-03-01T08:32:20;16.57;;;13.30;;
7883;SDS011;3987;51.458;7.238;2023-03-01T08:47:21;14.83;;;13.23;;
7883;SDS011;3987;51.458;7.238;2023-03-01T09:02:21;13.40;;;12.00;;
7883;SDS011;3987;51.458;7.238;2023-03-01T09:17:21;10.80;;;10.10;;
7883;SDS011;3987;51.458;7.238;2023-03-01T09:32:22;10.33;;;9.33;;
7883;SDS011;3987;51.458;7.238;2023-03-01T09:47:29;9.40;;;8.60;;
7883;SDS011;3987;51.458;7.238;2023-03-01T10:02:38;8.83;;;8.10;;
7883;SDS011;3987;51.458;7.238;2023-03-01T10:32:51;8.47;;;7.87;;
7883;SDS011;3987;51.458;7.238;2023-03-01T10:48:02;8.10;;;7.53;;
7883;SDS011;3987;51.458;7.238;2023-03-01T11:03:09;8.07;;;7.33;;
7883;SDS011;3987;51.458;7.238;2023-03-01T11:18:19;8.30;;;7.90;;
7883;SDS011;3987;51.458;7.238;2023-03-01T11:33:30;8.90;;;8.20;;
7883;SDS011;3987;51.458;7.238;2023-03-01T12:03:54;7.70;;;7.30;;
7883;SDS011;3987;51.458;7.238;2023-03-01T12:34:25;9.40;;;8.60;;
7883;SDS011;3987;51.458;7.238;2023-03-01T12:49:34;8.30;;;7.70;;
7883;SDS011;3987;51.458;7.238;2023-03-01T13:05:01;8.60;;;7.90;;
7883;SDS011;3987;51.458;7.238;2023-03-01T13:20:17;8.10;;;7.20;;
7883;SDS011;3987;51.458;7.238;2023-03-01T13:50:31;7.73;;;6.37;;
7883;SDS011;3987;51.458;7.238;2023-03-01T14:05:33;7.83;;;7.30;;
7883;SDS011;3987;51.458;7.238;2023-03-01T14:20:40;7.83;;;7.53;;
7883;SDS011;3987;51.458;7.238;2023-03-01T14:35:41;8.50;;;7.00;;
7883;SDS011;3987;51.458;7.238;2023-03-01T14:50:42;6.87;;;6.30;;
7883;SDS011;3987;51.458;7.238;2023-03-01T15:05:43;6.23;;;5.73;;
7883;SDS011;3987;51.458;7.238;2023-03-01T15:20:44;6.27;;;5.70;;
7883;SDS011;3987;51.458;7.238;2023-03-01T15:35:46;6.63;;;6.17;;
7883;SDS011;3987;51.458;7.238;2023-03-01T15:50:53;7.17;;;6.57;;
7883;SDS011;3987;51.458;7.238;2023-03-01T16:05:55;6.97;;;6.57;;
7883;SDS011;3987;51.458;7.238;2023-03-01T16:20:55;6.93;;;6.53;;
7883;SDS011;3987;51.458;7.238;2023-03-01T16:35:56;6.17;;;5.87;;
7883;SDS011;3987;51.458;7.238;2023-03-01T16:50:57;5.87;;;5.43;;
7883;SDS011;3987;51.458;7.238;2023-03-01T17:06:02;7.30;;;6.70;;
7883;SDS011;3987;51.458;7.238;2023-03-01T17:21:07;6.57;;;6.17;;
7883;SDS011;3987;51.458;7.238;2023-03-01T17:36:08;6.10;;;5.80;;
7883;SDS011;3987;51.458;7.238;2023-03-01T17:51:09;6.30;;;5.80;;
7883;SDS011;3987;51.458;7.238;2023-03-01T18:06:15;7.37;;;6.60;;
7883;SDS011;3987;51.458;7.238;2023-03-01T18:21:16;6.50;;;6.20;;
7883;SDS011;3987;51.458;7.238;2023-03-01T18:36:18;7.50;;;5.57;;
7883;SDS011;3987;51.458;7.238;2023-03-01T18:51:27;8.90;;;6.80;;
7883;SDS011;3987;51.458;7.238;2023-03-01T19:06:31;7.53;;;7.13;;
7883;SDS011;3987;51.458;7.238;2023-03-01T19:21:33;7.70;;;7.00;;
7883;SDS011;3987;51.458;7.238;2023-03-01T19:36:33;8.80;;;8.10;;
7883;SDS011;3987;51.458;7.238;2023-03-01T19:51:34;7.67;;;7.23;;
7883;SDS011;3987;51.458;7.238;2023-03-01T20:06:36;7.27;;;6.87;;
7883;SDS011;3987;51.458;7.238;2023-03-01T20:21:37;8.30;;;7.67;;
7883;SDS011;3987;51.458;7.238;2023-03-01T20:36:37;7.40;;;6.83;;
7883;SDS011;3987;51.458;7.238;2023-03-01T20:51:38;8.18;;;7.45;;
7883;SDS011;3987;51.458;7.238;2023-03-01T21:06:38;14.73;;;9.43;;
7883;SDS011;3987;51.458;7.238;2023-03-01T21:21:39;7.60;;;6.90;;
7883;SDS011;3987;51.458;7.238;2023-03-01T21:36:39;7.70;;;7.20;;
7883;SDS011;3987;51.458;7.238;2023-03-01T21:51:40;7.33;;;6.73;;
7883;SDS011;3987;51.458;7.238;2023-03-01T22:06:41;7.10;;;6.60;;
7883;SDS011;3987;51.458;7.238;2023-03-01T22:21:44;7.40;;;6.90;;
7883;SDS011;3987;51.458;7.238;2023-03-01T22:36:45;7.53;;;6.53;;
7883;SDS011;3987;51.458;7.238;2023-03-01T22:51:46;10.80;;;7.23;;
7883;SDS011;3987;51.458;7.238;2023-03-01T23:06:46;7.00;;;6.40;;
7883;SDS011;3987;51.458;7.238;2023-03-01T23:21:50;6.97;;;6.40;;
7883;SDS011;3987;51.458;7.238;2023-03-01T23:36:53;7.67;;;6.93;;
7883;SDS011;3987;51.458;7.238;2023-03-01T23:51:54;8.03;;;7.40;;
